KLFK

Angelina County Airport

Lufkin, Texas, USA
KLFK 161727Z 1618/1718 24006KT P6SM SKC FM170000 22003KT P6SM FEW060 SCT250 FM171200 25009KT P6SM SCT250
Issued Valid From Valid To
Jul-16 @ 17:27 UTC
(2 hours ago)
Jul-16 @ 18:00 UTC
(2 hours ago)
Jul-17 @ 18:00 UTC
(in 22 hours)
Jul-16 @ 18:00 to Jul-17 @ 00:00
KLFK 161727Z 1618/1718 24006KT P6SM SKC
Wind Visibility Clouds
240° at 6 knots Greater than 6 miles
  • Clear skies
From Jul-17 @ 00:00 to Jul-17 @ 12:00
FM170000 22003KT P6SM FEW060 SCT250
Wind Visibility Clouds
220° at 3 knots Greater than 6 miles
  • Few at 6,000' AGL
  • Scattered at 25,000' AGL
From Jul-17 @ 12:00 to Jul-17 @ 18:00
FM171200 25009KT P6SM SCT250
Wind Visibility Clouds
250° at 9 knots Greater than 6 miles
  • Scattered at 25,000' AGL
KLFK 161727Z 1618/1718 24006KT P6SM SKC FM170000 22003KT P6SM FEW060 SCT250 FM171200 25009KT P6SM SCT250
Issued Jul-16 @ 17:27 UTC
(2 hours ago)
Valid From Jul-16 @ 18:00 UTC
(2 hours ago)
Valid To Jul-17 @ 18:00 UTC
(in 22 hours)
Jul-16 @ 18:00 - Jul-17 @ 00:00
Wind Visibility
240° at 6 knots Greater than 6 miles
Clouds
  • Clear skies
From Jul-17 @ 00:00 - Jul-17 @ 12:00
Wind Visibility
220° at 3 knots Greater than 6 miles
Clouds
  • Few at 6,000' AGL
  • Scattered at 25,000' AGL
From Jul-17 @ 12:00 - Jul-17 @ 18:00
Wind Visibility
250° at 9 knots Greater than 6 miles
Clouds
  • Scattered at 25,000' AGL